createdAt,value
2018-04-09T00:02:27.067Z,14.60
2018-04-09T00:05:00.638Z,14.60
2018-04-09T00:07:34.209Z,14.60
2018-04-09T00:10:07.788Z,14.70
2018-04-09T00:12:42.120Z,14.80
2018-04-09T00:15:16.537Z,14.80
2018-04-09T00:17:50.115Z,14.70
2018-04-09T00:20:23.730Z,14.50
2018-04-09T00:22:57.301Z,14.30
2018-04-09T00:25:31.757Z,14.20
2018-04-09T00:28:05.333Z,14.20
2018-04-09T00:30:38.939Z,14.30
2018-04-09T00:33:12.557Z,14.20
2018-04-09T00:35:46.870Z,13.90
2018-04-09T00:38:20.586Z,13.90
2018-04-09T00:40:54.144Z,13.90
2018-04-09T00:43:27.701Z,13.80
2018-04-09T00:46:01.271Z,13.70
2018-04-09T00:48:34.825Z,13.60
2018-04-09T00:51:08.464Z,13.50
2018-04-09T00:53:53.927Z,13.10
2018-04-09T00:56:27.464Z,12.90
2018-04-09T00:59:00.972Z,12.80
2018-04-09T01:01:34.550Z,12.70
2018-04-09T01:04:08.056Z,12.60
2018-04-09T01:06:41.583Z,12.60
2018-04-09T01:09:15.256Z,12.60
2018-04-09T01:11:48.835Z,12.60
2018-04-09T01:14:22.364Z,12.50
2018-04-09T01:16:55.947Z,12.50
2018-04-09T01:19:29.502Z,12.40
2018-04-09T01:22:03.768Z,12.20
2018-04-09T01:24:37.395Z,12.20
2018-04-09T01:27:10.945Z,12.10
2018-04-09T01:29:44.479Z,12.10
2018-04-09T01:32:18.048Z,12.00
2018-04-09T01:34:51.665Z,11.80
2018-04-09T01:37:25.258Z,11.80
2018-04-09T01:39:58.901Z,11.70
2018-04-09T01:42:32.475Z,11.70
2018-04-09T01:45:05.963Z,11.80
2018-04-09T01:47:40.275Z,11.80
2018-04-09T01:50:14.110Z,11.80
2018-04-09T01:52:47.685Z,11.80
2018-04-09T01:55:21.257Z,11.70
2018-04-09T01:57:54.805Z,11.70
2018-04-09T02:00:28.388Z,11.60
2018-04-09T02:03:01.982Z,11.60
2018-04-09T02:05:36.312Z,11.60
2018-04-09T02:08:09.930Z,11.60
2018-04-09T02:10:43.504Z,11.60
2018-04-09T02:13:17.100Z,11.50
2018-04-09T02:15:50.680Z,11.40
2018-04-09T02:18:24.349Z,11.30
2018-04-09T02:20:57.889Z,11.30
2018-04-09T02:23:31.524Z,11.30
2018-04-09T02:26:05.001Z,11.10
2018-04-09T02:28:38.588Z,10.90
2018-04-09T02:31:12.939Z,10.90
2018-04-09T02:33:46.552Z,10.90
2018-04-09T02:36:20.153Z,11.00
2018-04-09T02:38:53.683Z,11.00
2018-04-09T02:41:27.216Z,10.90
2018-04-09T02:44:00.716Z,10.80
2018-04-09T02:46:34.321Z,10.70
2018-04-09T02:49:07.903Z,10.70
2018-04-09T02:51:41.524Z,10.60
2018-04-09T02:54:15.064Z,10.60
2018-04-09T02:56:48.616Z,10.60
2018-04-09T02:59:22.212Z,10.50
2018-04-09T03:01:55.823Z,10.50
2018-04-09T03:04:29.368Z,10.40
2018-04-09T03:07:03.026Z,10.30
2018-04-09T03:09:36.561Z,10.20
2018-04-09T03:12:10.108Z,10.10
2018-04-09T03:14:44.478Z,10.30
2018-04-09T03:17:18.040Z,10.20
2018-04-09T03:19:51.622Z,10.20
2018-04-09T03:22:25.244Z,10.20
2018-04-09T03:24:58.882Z,10.10
2018-04-09T03:27:32.447Z,9.30
2018-04-09T03:30:06.053Z,9.20
2018-04-09T03:32:39.648Z,8.80
2018-04-09T03:35:13.221Z,9.00
2018-04-09T03:37:46.725Z,9.10
2018-04-09T03:40:20.272Z,9.20
2018-04-09T03:42:53.835Z,9.30
2018-04-09T03:45:27.437Z,9.30
2018-04-09T03:48:01.018Z,9.40
2018-04-09T03:50:35.372Z,9.10
2018-04-09T03:53:08.945Z,9.10
2018-04-09T03:55:42.578Z,9.20
2018-04-09T03:58:16.424Z,9.10
2018-04-09T04:00:49.966Z,8.90
2018-04-09T04:03:23.549Z,8.90
2018-04-09T04:05:57.096Z,8.90
2018-04-09T04:08:30.701Z,8.90
2018-04-09T04:11:04.256Z,8.90
2018-04-09T04:13:38.572Z,8.90
2018-04-09T04:16:24.193Z,8.80
2018-04-09T04:19:10.645Z,8.70
2018-04-09T04:21:46.001Z,8.70
2018-04-09T04:24:19.673Z,8.50
2018-04-09T04:26:53.371Z,8.60
2018-04-09T04:29:27.005Z,8.80
2018-04-09T04:32:01.348Z,8.60
2018-04-09T04:34:34.920Z,8.60
2018-04-09T04:37:08.520Z,8.30
2018-04-09T04:39:42.132Z,8.30
2018-04-09T04:42:15.659Z,8.30
2018-04-09T04:44:49.244Z,8.20
2018-04-09T04:47:22.756Z,8.20
2018-04-09T04:49:57.059Z,7.80
2018-04-09T04:52:30.864Z,7.80
2018-04-09T04:55:04.453Z,7.80
2018-04-09T04:57:38.040Z,7.90
2018-04-09T05:00:11.708Z,8.10
2018-04-09T05:02:45.243Z,8.10
2018-04-09T05:05:18.773Z,8.10
2018-04-09T05:07:52.281Z,8.10
2018-04-09T05:10:26.653Z,8.20
2018-04-09T05:13:00.300Z,8.10
2018-04-09T05:15:34.717Z,8.30
2018-04-09T05:18:08.328Z,8.30
2018-04-09T05:20:42.860Z,8.20
2018-04-09T05:23:16.485Z,8.20
2018-04-09T05:25:50.067Z,7.20
2018-04-09T05:28:23.559Z,7.40
2018-04-09T05:30:57.142Z,7.60
2018-04-09T05:33:30.718Z,7.80
2018-04-09T05:36:04.325Z,7.90
2018-04-09T05:38:38.626Z,8.20
2018-04-09T05:41:12.384Z,8.10
2018-04-09T05:43:45.958Z,8.20
2018-04-09T05:46:20.272Z,8.40
2018-04-09T05:48:53.885Z,8.40
2018-04-09T05:51:27.468Z,8.50
2018-04-09T05:54:00.994Z,8.60
2018-04-09T05:56:34.597Z,8.70
2018-04-09T05:59:08.295Z,8.90
2018-04-09T06:01:41.846Z,9.00
2018-04-09T06:04:15.401Z,9.20
2018-04-09T06:06:48.935Z,9.30
2018-04-09T06:09:22.459Z,9.50
2018-04-09T06:11:56.088Z,9.30
2018-04-09T06:14:29.645Z,9.40
2018-04-09T06:17:03.397Z,9.50
2018-04-09T06:19:37.793Z,9.70
2018-04-09T06:22:11.525Z,9.70
2018-04-09T06:24:45.100Z,9.80
2018-04-09T06:27:18.728Z,9.90
2018-04-09T06:29:52.292Z,9.90
2018-04-09T06:32:25.815Z,10.10
2018-04-09T06:34:59.375Z,10.20
2018-04-09T06:37:32.945Z,10.30
2018-04-09T06:40:06.485Z,10.30
2018-04-09T06:42:40.825Z,10.60
2018-04-09T06:45:14.385Z,10.60
2018-04-09T06:47:47.912Z,10.70
2018-04-09T06:50:21.506Z,10.80
2018-04-09T06:52:55.828Z,10.80
2018-04-09T06:55:29.552Z,10.80
2018-04-09T06:58:03.109Z,10.90
2018-04-09T07:00:36.668Z,11.00
2018-04-09T07:03:10.249Z,11.10
2018-04-09T07:05:43.835Z,11.20
2018-04-09T07:08:18.163Z,11.30
2018-04-09T07:10:51.764Z,11.30
2018-04-09T07:13:25.392Z,11.30
2018-04-09T07:15:58.956Z,11.30
2018-04-09T07:18:32.568Z,11.10
2018-04-09T07:21:06.088Z,11.20
2018-04-09T07:23:39.727Z,11.00
2018-04-09T07:26:13.444Z,11.30
2018-04-09T07:28:47.063Z,11.60
2018-04-09T07:31:20.644Z,11.80
2018-04-09T07:33:55.192Z,12.30
2018-04-09T07:36:28.871Z,12.30
2018-04-09T07:39:02.383Z,12.50
2018-04-09T07:41:36.747Z,13.10
2018-04-09T07:44:11.016Z,13.40
2018-04-09T07:46:44.726Z,13.40
2018-04-09T07:49:19.036Z,13.90
2018-04-09T07:51:52.807Z,13.90
2018-04-09T07:54:26.275Z,14.10
2018-04-09T07:56:59.837Z,14.30
2018-04-09T07:59:33.376Z,14.60
2018-04-09T08:02:06.949Z,14.80
2018-04-09T08:04:40.536Z,15.10
2018-04-09T08:07:14.114Z,15.20
2018-04-09T08:09:47.672Z,15.50
2018-04-09T08:12:21.347Z,15.60
2018-04-09T08:14:54.942Z,15.70
2018-04-09T08:17:28.566Z,15.80
2018-04-09T08:20:02.155Z,15.90
2018-04-09T08:22:35.718Z,16.10
2018-04-09T08:25:09.386Z,16.20
2018-04-09T08:27:42.948Z,16.30
2018-04-09T08:30:16.450Z,16.30
2018-04-09T08:32:49.989Z,16.30
2018-04-09T08:35:23.517Z,16.40
2018-04-09T08:37:57.065Z,16.40
2018-04-09T08:40:30.758Z,16.50
2018-04-09T08:43:04.307Z,16.60
2018-04-09T08:45:38.643Z,16.90
2018-04-09T08:48:12.205Z,16.90
2018-04-09T08:50:46.488Z,17.00
2018-04-09T08:53:20.069Z,16.90
2018-04-09T08:55:54.396Z,17.00
2018-04-09T08:58:27.967Z,17.00
2018-04-09T09:01:01.495Z,17.20
2018-04-09T09:03:35.019Z,17.30
2018-04-09T09:06:08.580Z,17.40
2018-04-09T09:08:42.230Z,17.60
2018-04-09T09:11:15.823Z,17.80
2018-04-09T09:13:49.705Z,18.00
2018-04-09T09:16:23.386Z,18.20
2018-04-09T09:18:56.951Z,18.30
2018-04-09T09:21:30.528Z,18.50
2018-04-09T09:24:04.071Z,18.60
2018-04-09T09:26:37.627Z,18.70
2018-04-09T09:29:11.202Z,18.80
2018-04-09T09:31:44.770Z,19.00
2018-04-09T09:34:19.096Z,19.00
2018-04-09T09:36:52.761Z,19.20
2018-04-09T09:39:26.353Z,19.40
2018-04-09T09:41:59.832Z,19.50
2018-04-09T09:44:34.143Z,19.80
2018-04-09T09:47:08.563Z,19.80
2018-04-09T09:49:42.251Z,19.80
2018-04-09T09:52:15.856Z,19.90
2018-04-09T09:54:49.446Z,19.90
2018-04-09T09:57:22.988Z,19.90
2018-04-09T09:59:56.580Z,19.70
2018-04-09T10:02:32.066Z,19.70
2018-04-09T10:05:05.736Z,19.50
2018-04-09T10:07:39.346Z,19.60
2018-04-09T10:10:12.848Z,19.80
2018-04-09T10:12:46.426Z,19.80
2018-04-09T10:15:19.997Z,19.80
2018-04-09T10:17:53.584Z,19.70
2018-04-09T10:20:27.249Z,19.80
2018-04-09T10:23:00.821Z,20.00
2018-04-09T10:25:34.400Z,20.10
2018-04-09T10:28:07.951Z,20.20
2018-04-09T10:30:41.547Z,20.20
2018-04-09T10:33:15.117Z,20.20
2018-04-09T10:35:48.720Z,20.20
2018-04-09T10:38:22.245Z,20.20
2018-04-09T10:40:55.826Z,20.20
2018-04-09T10:43:29.525Z,20.10
2018-04-09T10:46:03.842Z,19.90
2018-04-09T10:48:38.147Z,20.00
2018-04-09T10:51:11.878Z,20.00
2018-04-09T10:53:45.419Z,19.80
2018-04-09T10:56:19.052Z,19.80
2018-04-09T10:58:52.674Z,19.80
2018-04-09T11:01:26.242Z,19.80
2018-04-09T11:03:59.849Z,19.80
2018-04-09T11:06:33.360Z,19.80
2018-04-09T11:09:06.933Z,19.90
2018-04-09T11:11:40.643Z,20.00
2018-04-09T11:14:14.157Z,20.10
2018-04-09T11:16:47.673Z,20.20
2018-04-09T11:19:21.193Z,20.40
2018-04-09T11:21:54.737Z,20.40
2018-04-09T11:24:28.371Z,20.30
2018-04-09T11:27:01.960Z,19.70
2018-04-09T11:29:35.562Z,19.80
2018-04-09T11:32:09.877Z,19.60
2018-04-09T11:34:43.596Z,19.60
2018-04-09T11:37:17.906Z,20.00
2018-04-09T11:39:52.226Z,20.10
2018-04-09T11:42:25.807Z,20.10
2018-04-09T11:44:59.449Z,20.10
2018-04-09T11:47:33.002Z,20.40
2018-04-09T11:50:07.537Z,20.60
2018-04-09T11:52:41.258Z,20.60
2018-04-09T11:55:15.525Z,21.00
2018-04-09T12:00:22.767Z,21.30
2018-04-09T12:02:56.433Z,21.20
2018-04-09T12:05:29.976Z,21.30
2018-04-09T12:08:03.499Z,21.40
2018-04-09T12:10:37.988Z,20.80
2018-04-09T12:13:11.707Z,20.80
2018-04-09T12:15:46.129Z,21.00
2018-04-09T12:18:19.789Z,21.00
2018-04-09T12:20:53.335Z,21.20
2018-04-09T12:23:26.921Z,21.30
2018-04-09T12:26:00.442Z,21.50
2018-04-09T12:28:34.025Z,21.70
2018-04-09T12:31:07.601Z,22.00
2018-04-09T12:33:41.351Z,22.40
2018-04-09T12:36:14.881Z,22.60
2018-04-09T12:38:48.442Z,22.50
2018-04-09T12:41:22.091Z,22.40
2018-04-09T12:43:55.794Z,22.50
2018-04-09T12:46:29.552Z,22.40
2018-04-09T12:49:03.148Z,22.50
2018-04-09T12:51:36.859Z,22.50
2018-04-09T12:54:11.146Z,22.40
2018-04-09T12:56:44.860Z,22.40
2018-04-09T12:59:18.414Z,22.50
2018-04-09T13:01:52.177Z,22.60
2018-04-09T13:04:25.782Z,22.50
2018-04-09T13:06:59.482Z,22.10
2018-04-09T13:09:33.790Z,22.10
2018-04-09T13:12:07.368Z,22.10
2018-04-09T13:14:41.789Z,21.30
2018-04-09T13:17:15.461Z,21.30
2018-04-09T13:19:49.133Z,21.40
2018-04-09T13:22:23.609Z,21.20
2018-04-09T13:24:57.163Z,21.20
2018-04-09T13:27:30.702Z,21.00
2018-04-09T13:30:04.289Z,21.10
2018-04-09T13:32:38.624Z,21.20
2018-04-09T13:35:12.311Z,21.20
2018-04-09T13:37:46.753Z,21.70
2018-04-09T13:40:20.462Z,21.60
2018-04-09T13:42:54.199Z,21.90
2018-04-09T13:45:27.757Z,21.60
2018-04-09T13:48:01.380Z,21.50
2018-04-09T13:50:34.954Z,21.40
2018-04-09T13:53:08.472Z,21.20
2018-04-09T13:55:42.063Z,21.10
2018-04-09T13:58:15.742Z,21.00
2018-04-09T14:00:49.338Z,21.00
2018-04-09T14:03:23.119Z,21.00
2018-04-09T14:05:56.647Z,21.30
2018-04-09T14:08:30.203Z,21.30
2018-04-09T14:11:03.795Z,21.10
2018-04-09T14:13:37.505Z,20.90
2018-04-09T14:16:11.071Z,21.00
2018-04-09T14:18:44.828Z,20.90
2018-04-09T14:21:19.091Z,20.90
2018-04-09T14:23:52.603Z,20.80
2018-04-09T14:26:26.176Z,21.00
2018-04-09T14:28:59.747Z,21.00
2018-04-09T14:31:33.279Z,21.00
2018-04-09T14:34:06.965Z,21.10
2018-04-09T14:36:40.543Z,21.20
2018-04-09T14:39:14.869Z,20.50
2018-04-09T14:41:49.277Z,20.50
2018-04-09T14:44:22.869Z,20.50
2018-04-09T14:46:56.432Z,20.40
2018-04-09T14:49:30.003Z,20.30
2018-04-09T14:52:03.556Z,20.20
2018-04-09T14:54:37.054Z,20.20
2018-04-09T14:57:11.341Z,20.10
2018-04-09T14:59:44.953Z,20.10
2018-04-09T15:02:18.474Z,19.90
2018-04-09T15:04:52.059Z,19.70
2018-04-09T15:07:25.615Z,19.80
2018-04-09T15:09:59.252Z,19.80
2018-04-09T15:12:33.573Z,19.80
2018-04-09T15:15:08.093Z,20.00
2018-04-09T15:17:41.615Z,20.00
2018-04-09T15:20:15.187Z,20.20
2018-04-09T15:22:48.799Z,20.20
2018-04-09T15:25:22.401Z,20.40
2018-04-09T15:27:56.011Z,20.40
2018-04-09T15:30:29.527Z,20.50
2018-04-09T15:33:03.808Z,20.50
2018-04-09T15:35:37.508Z,20.50
2018-04-09T15:38:11.042Z,20.10
2018-04-09T15:40:44.621Z,20.20
2018-04-09T15:43:18.215Z,20.10
2018-04-09T15:45:52.635Z,19.70
2018-04-09T15:48:26.215Z,19.70
2018-04-09T15:50:59.818Z,19.60
2018-04-09T15:53:33.438Z,19.60
2018-04-09T15:56:06.990Z,19.50
2018-04-09T15:58:40.632Z,19.40
2018-04-09T16:01:14.231Z,19.40
2018-04-09T16:03:47.824Z,19.50
2018-04-09T16:06:21.360Z,19.50
2018-04-09T16:08:54.927Z,19.40
2018-04-09T16:11:28.530Z,19.40
2018-04-09T16:14:02.035Z,19.50
2018-04-09T16:16:35.750Z,19.60
2018-04-09T16:19:09.476Z,19.60
2018-04-09T16:21:43.043Z,19.60
2018-04-09T16:24:16.631Z,19.70
2018-04-09T16:26:50.254Z,19.80
2018-04-09T16:29:23.961Z,19.90
2018-04-09T16:31:57.721Z,19.80
2018-04-09T16:34:31.355Z,19.80
2018-04-09T16:37:04.941Z,19.90
2018-04-09T16:39:38.659Z,20.00
2018-04-09T16:42:12.192Z,19.90
2018-04-09T16:44:46.469Z,19.80
2018-04-09T16:47:20.194Z,19.70
2018-04-09T16:49:54.511Z,19.70
2018-04-09T16:52:28.123Z,19.70
2018-04-09T16:55:01.688Z,19.60
2018-04-09T16:57:35.260Z,19.50
2018-04-09T17:00:08.801Z,19.40
2018-04-09T17:02:42.366Z,19.50
2018-04-09T17:05:16.110Z,19.20
2018-04-09T17:07:49.767Z,19.10
2018-04-09T17:10:23.305Z,18.90
2018-04-09T17:12:56.884Z,18.70
2018-04-09T17:15:30.406Z,18.70
2018-04-09T17:18:04.031Z,18.50
2018-04-09T17:20:37.575Z,18.60
2018-04-09T17:23:11.923Z,18.20
2018-04-09T17:25:46.242Z,18.20
2018-04-09T17:28:19.734Z,18.20
2018-04-09T17:30:53.464Z,18.10
2018-04-09T17:33:27.166Z,18.20
2018-04-09T17:36:01.511Z,18.00
2018-04-09T17:38:35.131Z,18.00
2018-04-09T17:41:09.475Z,17.90
2018-04-09T17:43:43.063Z,17.90
2018-04-09T17:46:16.674Z,17.90
2018-04-09T17:48:50.265Z,17.80
2018-04-09T17:51:23.867Z,17.80
2018-04-09T17:53:57.401Z,17.70
2018-04-09T17:56:30.977Z,17.70
2018-04-09T17:59:04.562Z,17.50
2018-04-09T18:01:38.159Z,17.50
2018-04-09T18:04:11.775Z,17.50
2018-04-09T18:06:46.082Z,17.40
2018-04-09T18:09:19.734Z,17.30
2018-04-09T18:11:53.296Z,17.30
2018-04-09T18:14:26.879Z,17.20
2018-04-09T18:17:00.495Z,17.10
2018-04-09T18:19:34.075Z,17.10
2018-04-09T18:22:07.774Z,17.00
2018-04-09T18:24:41.288Z,16.80
2018-04-09T18:27:14.914Z,16.70
2018-04-09T18:29:48.497Z,16.80
2018-04-09T18:32:22.179Z,16.80
2018-04-09T18:34:56.624Z,16.70
2018-04-09T18:37:30.359Z,16.70
2018-04-09T18:40:03.914Z,16.60
2018-04-09T18:42:37.551Z,16.30
2018-04-09T18:45:11.120Z,16.10
2018-04-09T18:47:44.724Z,16.20
2018-04-09T18:50:18.253Z,16.40
2018-04-09T18:52:51.898Z,16.50
2018-04-09T18:55:25.448Z,16.40
2018-04-09T18:57:58.972Z,16.40
2018-04-09T19:00:32.617Z,16.30
2018-04-09T19:03:06.166Z,16.30
2018-04-09T19:05:39.723Z,15.90
2018-04-09T19:08:14.074Z,15.70
2018-04-09T19:10:47.762Z,15.60
2018-04-09T19:13:26.135Z,15.60
2018-04-09T19:15:59.854Z,15.60
2018-04-09T19:18:33.383Z,15.50
2018-04-09T19:21:07.728Z,14.80
2018-04-09T19:23:41.395Z,14.80
2018-04-09T19:26:14.925Z,14.60
2018-04-09T19:28:48.495Z,14.60
2018-04-09T19:31:22.054Z,14.60
2018-04-09T19:33:58.702Z,14.60
2018-04-09T19:36:37.987Z,14.60
2018-04-09T19:39:17.357Z,14.60
2018-04-09T19:41:51.851Z,14.70
2018-04-09T19:44:25.457Z,14.60
2018-04-09T19:46:59.044Z,14.70
2018-04-09T19:49:32.645Z,14.80
2018-04-09T19:52:06.247Z,14.80
2018-04-09T19:54:39.839Z,14.90
2018-04-09T19:57:13.378Z,15.00
2018-04-09T19:59:47.653Z,15.10
2018-04-09T20:02:22.013Z,15.20
2018-04-09T20:04:56.387Z,15.20
2018-04-09T20:07:29.995Z,15.20
2018-04-09T20:10:03.524Z,15.10
2018-04-09T20:12:37.134Z,14.80
2018-04-09T20:15:11.480Z,14.60
2018-04-09T20:17:45.243Z,14.50
2018-04-09T20:20:18.798Z,14.60
2018-04-09T20:22:52.361Z,14.70
2018-04-09T20:25:25.911Z,14.60
2018-04-09T20:27:59.548Z,14.60
2018-04-09T20:30:33.234Z,14.40
2018-04-09T20:33:06.799Z,14.20
2018-04-09T20:35:40.367Z,13.50
2018-04-09T20:38:13.962Z,13.20
2018-04-09T20:40:47.900Z,13.30
2018-04-09T20:43:21.442Z,13.30
2018-04-09T20:45:55.144Z,13.30
2018-04-09T20:48:28.755Z,13.20
2018-04-09T20:51:02.454Z,13.00
2018-04-09T20:53:36.051Z,13.00
2018-04-09T20:56:09.607Z,13.00
2018-04-09T20:58:43.255Z,12.90
2018-04-09T21:01:16.831Z,12.90
2018-04-09T21:03:50.442Z,12.90
2018-04-09T21:06:24.762Z,12.50
2018-04-09T21:08:58.518Z,12.50
2018-04-09T21:11:31.995Z,12.40
2018-04-09T21:14:05.691Z,12.40
2018-04-09T21:16:39.191Z,12.40
2018-04-09T21:19:12.671Z,12.30
2018-04-09T21:21:46.253Z,12.10
2018-04-09T21:24:19.928Z,12.00
2018-04-09T21:26:54.194Z,11.80
2018-04-09T21:29:28.615Z,11.80
2018-04-09T21:32:03.014Z,11.70
2018-04-09T21:34:36.726Z,11.60
2018-04-09T21:37:10.462Z,11.70
2018-04-09T21:39:44.010Z,11.50
2018-04-09T21:42:17.627Z,11.40
2018-04-09T21:44:51.964Z,11.20
2018-04-09T21:47:25.511Z,11.10
2018-04-09T21:49:59.079Z,10.90
2018-04-09T21:52:32.697Z,10.90
2018-04-09T21:55:06.385Z,10.90
2018-04-09T21:57:40.659Z,10.90
2018-04-09T22:00:15.000Z,10.90
2018-04-09T22:02:49.418Z,10.80
2018-04-09T22:05:23.125Z,10.70
2018-04-09T22:07:56.634Z,10.50
2018-04-09T22:10:30.946Z,10.40
2018-04-09T22:13:04.645Z,10.40
2018-04-09T22:15:38.935Z,10.40
2018-04-09T22:18:12.542Z,10.40
2018-04-09T22:20:46.127Z,10.30
2018-04-09T22:23:20.466Z,10.00
2018-04-09T22:25:54.061Z,10.00
2018-04-09T22:28:27.662Z,9.90
2018-04-09T22:31:01.181Z,9.80
2018-04-09T22:33:34.796Z,9.80
2018-04-09T22:36:09.109Z,9.70
2018-04-09T22:38:42.741Z,9.70
2018-04-09T22:41:16.398Z,9.70
2018-04-09T22:43:50.022Z,9.60
2018-04-09T22:46:23.758Z,9.60
2018-04-09T22:48:57.359Z,9.50
2018-04-09T22:51:30.923Z,9.30
2018-04-09T22:54:04.499Z,9.30
2018-04-09T22:56:37.990Z,9.30
2018-04-09T22:59:12.399Z,9.20
2018-04-09T23:01:45.974Z,9.20
2018-04-09T23:04:19.527Z,8.90
2018-04-09T23:06:53.032Z,8.90
2018-04-09T23:09:26.603Z,8.90
2018-04-09T23:12:00.181Z,9.00
2018-04-09T23:14:33.925Z,9.00
2018-04-09T23:17:07.498Z,9.00
2018-04-09T23:19:41.116Z,8.90
2018-04-09T23:35:35.350Z,8.70
2018-04-09T23:38:08.892Z,8.70
2018-04-09T23:40:42.459Z,8.60
2018-04-09T23:43:16.190Z,8.60
2018-04-09T23:45:49.770Z,8.50
2018-04-09T23:48:23.356Z,8.40
2018-04-09T23:50:57.696Z,8.30
2018-04-09T23:53:31.323Z,8.30
2018-04-09T23:56:04.868Z,8.30
2018-04-09T23:58:38.398Z,8.20
